Time;durP1;ratioP1;P1;durP2;ratioP2;P2;SDS_P1;SDS_P2;PMS_P1;PMS_P2;Temp;Humidity;BMP_temperature;BMP_pressure;BME280_temperature;BME280_humidity;BME280_pressure;Samples;Min_cycle;Max_cycle;Signal;HPM_P1;HPM_P2
2023/11/25 00:01:13;;;;;;;9.00;3.90;;;;;;;1.30;75.10;93677.18;106823;1275;22788;-76
2023/11/25 00:03:42;;;;;;;6.90;3.90;;;;;;;1.24;75.25;93676.75;106678;1272;22526;-76
2023/11/25 00:06:10;;;;;;;4.80;3.10;;;;;;;1.18;75.36;93683.75;106629;1275;24221;-76
2023/11/25 00:08:39;;;;;;;4.40;2.30;;;;;;;1.15;75.50;93681.71;106661;1275;23349;-76
2023/11/25 00:11:08;;;;;;;5.40;2.30;;;;;;;1.13;75.56;93684.86;106641;1275;22518;-76
2023/11/25 00:13:52;;;;;;;4.70;2.50;;;;;;;1.11;75.54;93688.87;106661;1253;24290;-76
2023/11/25 00:16:20;;;;;;;2.70;2.00;;;;;;;1.07;75.82;93692.91;106665;1275;25348;-76
2023/11/25 00:18:49;;;;;;;5.00;2.20;;;;;;;0.98;75.89;93702.89;106565;1275;24220;-76
2023/11/25 00:21:17;;;;;;;3.50;2.20;;;;;;;0.96;76.02;93703.61;106755;1275;23283;-76
2023/11/25 00:23:45;;;;;;;4.70;2.30;;;;;;;0.96;76.81;93706.20;106594;1275;24274;-76
2023/11/25 00:26:14;;;;;;;5.60;2.40;;;;;;;0.92;76.75;93706.42;106629;1275;22536;-76
2023/11/25 00:28:45;;;;;;;5.80;2.60;;;;;;;0.92;77.10;93701.92;106728;1275;22517;-76
2023/11/25 00:31:14;;;;;;;2.90;2.30;;;;;;;0.90;77.54;93696.06;106619;1275;22788;-76
2023/11/25 00:33:43;;;;;;;3.80;2.50;;;;;;;0.89;77.32;93699.88;106619;1275;24272;-76
2023/11/25 00:36:11;;;;;;;6.20;2.80;;;;;;;0.87;77.40;93696.45;106757;1275;24053;-76
2023/11/25 00:38:39;;;;;;;4.80;2.70;;;;;;;0.93;77.22;93696.02;106589;1275;22524;-76
2023/11/25 00:41:08;;;;;;;4.40;2.70;;;;;;;0.98;77.02;93687.48;106689;1275;24278;-76
2023/11/25 00:43:37;;;;;;;9.20;3.10;;;;;;;1.04;76.79;93683.26;106834;1275;22523;-76
2023/11/25 00:46:07;;;;;;;4.70;2.60;;;;;;;1.07;76.63;93679.58;106678;1275;22773;-76
2023/11/25 00:48:35;;;;;;;5.10;2.60;;;;;;;1.08;76.67;93676.96;106627;1275;24272;-76
2023/11/25 00:51:04;;;;;;;4.20;2.40;;;;;;;1.08;76.56;93683.71;106605;1275;22533;-76
2023/11/25 00:53:32;;;;;;;4.00;2.00;;;;;;;1.05;76.53;93682.89;106639;1275;22536;-76
2023/11/25 00:56:01;;;;;;;6.30;2.20;;;;;;;1.00;76.80;93678.80;106777;1275;25246;-76
2023/11/25 00:58:29;;;;;;;6.00;3.40;;;;;;;0.92;77.41;93681.32;106747;1275;22520;-76
2023/11/25 01:00:58;;;;;;;14.00;7.00;;;;;;;0.88;77.74;93666.48;106702;1275;24360;-76
2023/11/25 01:03:27;;;;;;;24.40;10.80;;;;;;;0.84;78.75;93660.48;106765;1267;24265;-76
2023/11/25 01:05:56;;;;;;;29.00;14.10;;;;;;;0.83;78.44;93657.20;106694;1275;24205;-77
2023/11/25 01:08:26;;;;;;;5.50;2.60;;;;;;;0.81;78.21;93657.40;106551;1275;24396;-76
2023/11/25 01:10:55;;;;;;;3.90;2.40;;;;;;;0.86;78.65;93654.73;106653;1275;24376;-76
2023/11/25 01:13:23;;;;;;;4.50;2.40;;;;;;;0.91;78.76;93652.95;106654;1275;22516;-76
2023/11/25 01:15:51;;;;;;;4.70;2.80;;;;;;;0.84;78.79;93653.04;106583;1275;22533;-76
2023/11/25 01:18:20;;;;;;;16.20;6.80;;;;;;;0.73;78.79;93660.09;106689;1275;25430;-77
2023/11/25 01:20:48;;;;;;;5.10;2.90;;;;;;;0.73;79.48;93669.45;106537;1275;25246;-76
2023/11/25 01:23:17;;;;;;;5.80;3.30;;;;;;;0.79;79.43;93668.14;106581;1275;22724;-76
2023/11/25 01:25:45;;;;;;;7.40;3.70;;;;;;;0.77;79.44;93664.73;106745;1275;22519;-76
2023/11/25 01:28:13;;;;;;;7.50;4.40;;;;;;;0.75;80.57;93664.05;106705;1275;22526;-76
2023/11/25 01:30:41;;;;;;;14.50;9.20;;;;;;;0.82;81.08;93661.88;106663;1275;25278;-77
2023/11/25 01:33:10;;;;;;;15.80;11.20;;;;;;;0.86;80.72;93665.30;106667;1275;22521;-76
2023/11/25 01:35:38;;;;;;;6.10;3.90;;;;;;;0.88;80.60;93664.58;106632;1275;25491;-76
2023/11/25 01:38:06;;;;;;;6.00;3.60;;;;;;;0.92;80.33;93666.09;106697;1275;22640;-76
2023/11/25 01:40:37;;;;;;;10.30;5.70;;;;;;;0.96;81.00;93664.48;106622;1275;24256;-77
2023/11/25 01:43:11;;;;;;;15.30;6.00;;;;;;;1.11;80.79;93660.99;106618;1275;22520;-77
2023/11/25 01:45:40;;;;;;;10.80;5.80;;;;;;;1.16;79.84;93651.05;106806;1275;24200;-76
2023/11/25 01:48:09;;;;;;;17.80;5.90;;;;;;;1.17;79.63;93650.33;106623;1275;23128;-77
2023/11/25 01:50:39;;;;;;;17.20;6.20;;;;;;;1.19;79.56;93639.08;106637;1275;24363;-77
2023/11/25 01:53:07;;;;;;;15.40;6.10;;;;;;;1.25;79.71;93628.06;106720;1275;22776;-76
2023/11/25 01:55:36;;;;;;;11.60;5.60;;;;;;;1.30;79.33;93614.99;106626;1275;24285;-76
2023/11/25 01:58:04;;;;;;;13.80;5.20;;;;;;;1.25;78.94;93602.44;106585;1276;25347;-76
2023/11/25 02:00:34;;;;;;;13.50;6.60;;;;;;;1.12;79.25;93591.02;106766;1253;24390;-76
2023/11/25 02:03:03;;;;;;;22.50;10.20;;;;;;;1.01;79.63;93579.42;106620;1275;25523;-76
2023/11/25 02:05:32;;;;;;;22.40;11.60;;;;;;;0.94;79.91;93582.96;106638;1275;22523;-76
2023/11/25 02:08:00;;;;;;;5.80;2.60;;;;;;;0.90;79.85;93584.06;106663;1275;22759;-76
2023/11/25 02:10:29;;;;;;;4.00;2.40;;;;;;;0.90;80.30;93595.32;106583;1275;22787;-76
2023/11/25 02:12:57;;;;;;;4.10;1.70;;;;;;;0.84;79.93;93604.05;106662;1275;25352;-76
2023/11/25 02:15:25;;;;;;;4.10;1.80;;;;;;;0.78;80.13;93610.88;106644;1275;25361;-76
2023/11/25 02:17:55;;;;;;;13.40;6.80;;;;;;;0.76;80.96;93607.29;106660;1275;22542;-76
2023/11/25 02:20:36;;;;;;;22.90;11.60;;;;;;;0.71;80.92;93611.84;106706;1275;22535;-76
2023/11/25 02:23:04;;;;;;;24.90;10.80;;;;;;;0.66;81.56;93621.78;106706;1275;22649;-77
2023/11/25 02:25:33;;;;;;;20.30;8.60;;;;;;;0.61;81.46;93624.77;106607;1275;24386;-76
2023/11/25 02:28:01;;;;;;;16.00;7.80;;;;;;;0.58;81.75;93622.91;106703;1275;25443;-77
2023/11/25 02:30:30;;;;;;;12.30;6.30;;;;;;;0.56;81.75;93622.59;106792;1275;23900;-76
2023/11/25 02:32:59;;;;;;;11.30;6.10;;;;;;;0.58;81.55;93625.50;106685;1275;22918;-76
2023/11/25 02:35:28;;;;;;;9.60;5.10;;;;;;;0.57;81.09;93629.30;106618;1275;26006;-76
2023/11/25 02:37:56;;;;;;;6.90;3.40;;;;;;;0.61;81.54;93629.44;106653;1275;24259;-76
2023/11/25 02:40:24;;;;;;;7.20;4.40;;;;;;;0.62;81.77;93630.29;106634;1275;22650;-76
2023/11/25 02:42:53;;;;;;;9.20;4.70;;;;;;;0.63;81.94;93629.76;106650;1275;22646;-77
2023/11/25 02:45:25;;;;;;;12.20;6.90;;;;;;;0.68;81.94;93624.18;106602;1275;24375;-76
2023/11/25 02:47:53;;;;;;;11.30;5.90;;;;;;;0.75;81.88;93626.86;106573;1275;22680;-77
2023/11/25 02:50:21;;;;;;;12.00;5.40;;;;;;;0.80;81.60;93616.91;106615;1275;22533;-76
2023/11/25 02:52:50;;;;;;;9.30;5.00;;;;;;;0.88;81.64;93601.77;106653;1275;25350;-77
2023/11/25 02:55:20;;;;;;;9.50;5.20;;;;;;;0.94;81.68;93602.54;106822;1275;22517;-76
2023/11/25 02:57:49;;;;;;;11.00;3.90;;;;;;;1.02;81.47;93616.79;106795;1275;22621;-77
2023/11/25 03:02:47;;;;;;;24.30;12.10;;;;;;;0.97;81.67;93634.17;106658;1275;23877;-76
2023/11/25 03:05:16;;;;;;;35.40;16.00;;;;;;;0.95;81.68;93626.58;106670;1275;22520;-77
2023/11/25 03:07:44;;;;;;;52.00;23.50;;;;;;;0.99;81.80;93623.77;106654;1275;25427;-77
2023/11/25 03:10:16;;;;;;;66.60;27.10;;;;;;;1.03;81.61;93619.90;106670;1275;22524;-77
2023/11/25 03:12:44;;;;;;;61.80;25.90;;;;;;;1.12;81.68;93619.42;106670;1275;22540;-77
2023/11/25 03:15:18;;;;;;;39.50;18.00;;;;;;;1.21;81.29;93621.90;106588;1275;22545;-76
2023/11/25 03:17:46;;;;;;;35.80;15.60;;;;;;;1.30;81.32;93614.84;106667;1275;22543;-76
2023/11/25 03:20:14;;;;;;;27.10;13.40;;;;;;;1.35;80.86;93608.00;106618;1275;24228;-77
2023/11/25 03:22:46;;;;;;;30.60;14.40;;;;;;;1.28;80.73;93607.23;106573;1275;22776;-77
2023/11/25 03:25:15;;;;;;;10.90;5.10;;;;;;;1.23;80.58;93601.77;106652;1275;22649;-76
2023/11/25 03:27:43;;;;;;;27.20;11.70;;;;;;;1.15;80.57;93601.54;106646;1265;22531;-76
2023/11/25 03:30:12;;;;;;;37.00;16.10;;;;;;;1.06;80.82;93612.07;106607;1275;23916;-76
2023/11/25 03:32:40;;;;;;;29.10;14.60;;;;;;;1.02;81.04;93623.73;106615;1275;22700;-76
2023/11/25 03:35:09;;;;;;;54.00;23.00;;;;;;;0.99;81.26;93628.95;106689;1275;22544;-76
2023/11/25 03:37:38;;;;;;;113.00;53.50;;;;;;;1.00;81.16;93624.78;106701;1275;25239;-76
2023/11/25 03:40:13;;;;;;;80.20;41.60;;;;;;;0.99;81.15;93618.91;106646;1275;22635;-76
2023/11/25 03:42:43;;;;;;;66.60;36.00;;;;;;;0.95;80.87;93620.34;106632;1275;23936;-76
2023/11/25 03:45:12;;;;;;;52.90;28.70;;;;;;;0.87;81.15;93622.36;106722;1275;22520;-76
2023/11/25 03:47:42;;;;;;;44.10;21.90;;;;;;;0.78;81.10;93614.52;106598;1275;22530;-76
2023/11/25 03:50:11;;;;;;;53.70;26.20;;;;;;;0.72;81.52;93616.67;106670;1275;22525;-76
2023/11/25 03:52:40;;;;;;;34.80;16.50;;;;;;;0.70;81.76;93615.48;106664;1275;24224;-76
2023/11/25 03:55:12;;;;;;;40.80;17.30;;;;;;;0.69;82.71;93610.85;106620;1275;25420;-76
2023/11/25 03:57:43;;;;;;;37.80;17.60;;;;;;;0.69;82.66;93611.17;106672;1275;22773;-76
2023/11/25 04:00:15;;;;;;;33.80;16.40;;;;;;;0.70;82.60;93613.41;106955;1275;24242;-76
2023/11/25 04:02:45;;;;;;;34.60;15.20;;;;;;;0.70;82.68;93607.70;106685;1275;24277;-76
2023/11/25 04:05:18;;;;;;;40.40;16.60;;;;;;;0.70;82.36;93608.92;106667;1272;25642;-76
2023/11/25 04:07:46;;;;;;;32.80;13.50;;;;;;;0.69;82.79;93607.90;106757;1275;22639;-76
2023/11/25 04:10:17;;;;;;;19.30;9.80;;;;;;;0.65;83.07;93609.33;106789;1275;22531;-76
2023/11/25 04:12:47;;;;;;;22.30;9.50;;;;;;;0.61;82.78;93607.64;106713;1275;25468;-76
2023/11/25 04:15:21;;;;;;;101.90;28.60;;;;;;;0.58;82.42;93608.71;106639;1275;22652;-76
2023/11/25 04:17:50;;;;;;;34.30;14.70;;;;;;;0.58;82.45;93608.71;106853;1275;22530;-76
2023/11/25 04:20:28;;;;;;;49.70;18.80;;;;;;;0.58;82.40;93610.80;106981;1275;22539;-77
2023/11/25 04:23:05;;;;;;;53.20;21.80;;;;;;;0.61;82.35;93618.02;106717;1275;22474;-77
2023/11/25 04:25:35;;;;;;;66.40;22.80;;;;;;;0.70;82.60;93615.48;106689;1275;22524;-77
2023/11/25 04:28:06;;;;;;;61.50;21.90;;;;;;;0.77;82.96;93614.52;106644;1275;25306;-77
2023/11/25 04:30:35;;;;;;;56.60;22.30;;;;;;;0.82;82.84;93620.70;106630;1275;22649;-76
2023/11/25 04:33:07;;;;;;;51.20;20.10;;;;;;;0.83;82.32;93617.56;106644;1275;22701;-76
2023/11/25 04:35:36;;;;;;;49.30;20.00;;;;;;;0.83;82.81;93619.29;106936;1275;25284;-77
2023/11/25 04:38:05;;;;;;;45.50;18.30;;;;;;;0.86;83.52;93626.53;106701;1275;22642;-77
2023/11/25 04:40:33;;;;;;;47.00;18.70;;;;;;;0.96;83.37;93627.27;106601;1275;25306;-76
2023/11/25 04:43:01;;;;;;;45.70;20.50;;;;;;;1.00;82.60;93625.32;106681;1275;24432;-77
2023/11/25 04:45:29;;;;;;;64.50;23.90;;;;;;;1.01;82.50;93624.77;106823;1275;22545;-77
2023/11/25 04:47:58;;;;;;;52.80;20.80;;;;;;;1.06;82.69;93622.80;106623;1275;23003;-76
2023/11/25 04:50:26;;;;;;;24.90;11.40;;;;;;;1.08;82.12;93622.61;106666;1275;23016;-77
2023/11/25 04:52:55;;;;;;;18.70;7.80;;;;;;;1.05;81.89;93612.77;106592;1275;25475;-76
2023/11/25 04:55:27;;;;;;;13.10;7.30;;;;;;;1.01;82.10;93608.66;106682;1275;22620;-76
2023/11/25 04:57:56;;;;;;;40.20;15.50;;;;;;;0.99;81.94;93591.73;106703;1275;24422;-77
2023/11/25 05:00:25;;;;;;;31.70;14.40;;;;;;;0.94;81.86;93581.07;106728;1275;25369;-76
2023/11/25 05:02:53;;;;;;;38.80;17.90;;;;;;;0.91;81.91;93578.35;106660;1275;22543;-77
2023/11/25 05:05:23;;;;;;;29.90;13.40;;;;;;;0.83;81.90;93570.31;106607;1266;25264;-77
2023/11/25 05:07:52;;;;;;;10.90;5.60;;;;;;;0.71;81.54;93567.20;106662;1275;25359;-77
2023/11/25 05:10:20;;;;;;;9.30;5.60;;;;;;;0.64;82.28;93555.17;106641;1275;23892;-76
2023/11/25 05:12:52;;;;;;;8.00;4.40;;;;;;;0.56;82.17;93554.60;106569;1275;22538;-76
2023/11/25 05:15:22;;;;;;;26.20;11.70;;;;;;;0.46;82.16;93556.64;106617;1275;22603;-75
2023/11/25 05:17:53;;;;;;;23.20;9.40;;;;;;;0.43;82.12;93557.36;106659;1275;23323;-76
2023/11/25 05:20:21;;;;;;;5.60;3.60;;;;;;;0.36;82.25;93550.19;106747;1275;24243;-75
2023/11/25 05:22:49;;;;;;;6.80;3.70;;;;;;;0.28;82.44;93542.50;106760;1275;22535;-75
2023/11/25 05:25:18;;;;;;;5.90;3.40;;;;;;;0.21;82.57;93540.16;106638;1275;22661;-75
2023/11/25 05:27:46;;;;;;;8.30;4.40;;;;;;;0.14;82.54;93550.10;106691;1275;24460;-76
2023/11/25 05:30:15;;;;;;;14.60;7.20;;;;;;;0.05;82.26;93568.70;106693;1275;25478;-75
2023/11/25 05:32:43;;;;;;;15.80;6.50;;;;;;;0.04;82.59;93581.17;106589;1275;23068;-75
2023/11/25 05:35:13;;;;;;;7.80;4.10;;;;;;;0.03;82.43;93588.27;106613;1275;24451;-75
2023/11/25 05:37:43;;;;;;;5.90;3.70;;;;;;;0.01;82.57;93590.35;106777;1275;22526;-75
2023/11/25 05:40:14;;;;;;;4.80;3.80;;;;;;;0.01;82.82;93597.80;106583;1275;24278;-76
2023/11/25 05:42:52;;;;;;;6.40;4.30;;;;;;;-0.00;82.81;93597.45;106592;1275;25489;-78
2023/11/25 05:45:26;;;;;;;5.40;3.60;;;;;;;-0.04;82.75;93604.23;106739;1275;22520;-76
2023/11/25 05:47:55;;;;;;;6.30;4.20;;;;;;;-0.05;82.94;93610.29;106741;1275;22653;-76
2023/11/25 05:50:23;;;;;;;5.70;4.10;;;;;;;-0.03;83.10;93615.27;106821;1275;22527;-75
2023/11/25 05:52:53;;;;;;;26.00;13.60;;;;;;;-0.08;83.41;93620.34;106550;1275;25290;-75
2023/11/25 05:55:22;;;;;;;12.60;6.10;;;;;;;-0.10;83.54;93620.54;106587;1275;22604;-75
2023/11/25 05:57:50;;;;;;;7.90;4.90;;;;;;;-0.09;83.65;93616.54;106716;1275;25428;-75
2023/11/25 06:00:21;;;;;;;9.60;4.60;;;;;;;-0.07;83.50;93617.73;106594;1275;22988;-76
2023/11/25 06:02:52;;;;;;;6.50;4.50;;;;;;;-0.13;83.25;93623.34;106643;1275;24273;-75
2023/11/25 06:05:21;;;;;;;7.40;3.90;;;;;;;-0.12;83.47;93630.58;106817;1275;22524;-76
2023/11/25 06:07:50;;;;;;;5.90;3.30;;;;;;;-0.04;83.63;93636.90;106699;1275;22618;-76
2023/11/25 06:10:18;;;;;;;4.70;3.00;;;;;;;-0.03;83.33;93639.99;106689;1275;22528;-76
2023/11/25 06:12:47;;;;;;;4.80;3.50;;;;;;;-0.03;83.11;93648.46;106841;1275;24406;-76
2023/11/25 06:15:18;;;;;;;6.70;4.10;;;;;;;-0.05;83.18;93645.20;106679;1265;26523;-76
2023/11/25 06:17:47;;;;;;;9.80;4.10;;;;;;;0.01;83.73;93639.80;107004;1275;22609;-76
2023/11/25 06:20:16;;;;;;;5.40;3.40;;;;;;;0.10;83.69;93636.77;106737;1275;25294;-75
2023/11/25 06:22:44;;;;;;;6.50;3.90;;;;;;;0.14;83.23;93633.43;106685;1275;22526;-75
2023/11/25 06:25:13;;;;;;;42.00;20.30;;;;;;;0.06;82.88;93635.93;106616;1275;24045;-75
2023/11/25 06:27:42;;;;;;;50.30;26.30;;;;;;;-0.08;82.86;93632.27;106725;1275;22586;-75
2023/11/25 06:30:15;;;;;;;31.20;19.70;;;;;;;-0.21;83.24;93634.29;106961;1275;22537;-75
2023/11/25 06:32:43;;;;;;;9.70;6.60;;;;;;;-0.21;83.07;93632.39;106879;1275;22559;-75
2023/11/25 06:35:12;;;;;;;9.20;7.70;;;;;;;-0.16;83.46;93627.34;106623;1275;22813;-76
2023/11/25 06:37:40;;;;;;;9.70;6.60;;;;;;;-0.09;83.42;93623.98;106673;1275;24244;-75
2023/11/25 06:40:13;;;;;;;20.30;14.00;;;;;;;-0.07;83.17;93623.61;106745;1275;24950;-75
2023/11/25 06:42:41;;;;;;;25.60;18.60;;;;;;;-0.11;82.88;93629.36;106609;1275;23613;-76
2023/11/25 06:45:13;;;;;;;19.10;14.10;;;;;;;-0.11;82.92;93640.25;106688;1275;22650;-76
2023/11/25 06:47:42;;;;;;;17.50;11.80;;;;;;;-0.15;82.65;93642.36;106807;1275;22562;-76
2023/11/25 06:50:11;;;;;;;23.00;14.00;;;;;;;-0.18;82.98;93646.70;106686;1275;22583;-76
2023/11/25 06:52:40;;;;;;;18.30;12.70;;;;;;;-0.17;82.94;93648.08;106568;1265;25401;-76
2023/11/25 06:55:09;;;;;;;21.70;12.10;;;;;;;-0.14;82.88;93645.11;106718;1275;25459;-76
2023/11/25 06:57:40;;;;;;;17.40;10.40;;;;;;;-0.10;82.93;93645.60;106588;1275;223206;-76
2023/11/25 07:00:11;;;;;;;15.70;11.30;;;;;;;-0.06;82.76;93640.19;106745;1275;25459;-76
2023/11/25 07:02:40;;;;;;;23.30;11.60;;;;;;;-0.00;83.07;93641.71;106906;1275;24525;-76
2023/11/25 07:05:10;;;;;;;29.10;16.00;;;;;;;0.02;83.39;93645.66;106703;1275;24915;-76
2023/11/25 07:07:38;;;;;;;34.30;18.00;;;;;;;0.08;83.73;93645.43;106859;1275;22646;-76
2023/11/25 07:10:13;;;;;;;24.90;14.20;;;;;;;0.15;84.16;93641.04;106685;1275;26650;-76
2023/11/25 07:12:42;;;;;;;25.10;13.40;;;;;;;0.19;83.93;93640.81;106748;1275;22636;-76
2023/11/25 07:15:11;;;;;;;29.90;17.30;;;;;;;0.21;83.79;93648.56;106691;1275;22531;-76
2023/11/25 07:17:40;;;;;;;24.50;15.60;;;;;;;0.20;83.47;93648.42;106616;1275;25307;-76
2023/11/25 07:20:13;;;;;;;27.40;15.60;;;;;;;0.17;83.47;93651.73;106788;1275;24376;-76
2023/11/25 07:22:41;;;;;;;40.30;22.60;;;;;;;0.15;83.27;93651.40;106691;1275;22907;-76
2023/11/25 07:25:14;;;;;;;26.40;17.60;;;;;;;0.16;83.28;93652.95;106639;1275;23012;-76
2023/11/25 07:27:46;;;;;;;49.50;29.30;;;;;;;0.18;83.51;93665.55;106818;1275;22614;-76
2023/11/25 07:30:15;;;;;;;43.20;27.40;;;;;;;0.18;83.61;93666.08;106683;1275;25310;-76
2023/11/25 07:32:44;;;;;;;50.50;30.70;;;;;;;0.20;83.68;93662.59;106918;1275;25658;-77
2023/11/25 07:35:13;;;;;;;73.60;43.30;;;;;;;0.25;83.40;93665.48;106786;1275;24354;-77
2023/11/25 07:37:41;;;;;;;77.40;45.60;;;;;;;0.28;83.35;93669.92;106965;1257;22737;-76
2023/11/25 07:40:14;;;;;;;77.80;48.90;;;;;;;0.34;83.33;93668.85;107005;1275;22523;-77
2023/11/25 07:42:48;;;;;;;84.00;45.90;;;;;;;0.47;83.83;93656.77;106660;1275;22530;-76
2023/11/25 07:45:17;;;;;;;54.30;32.20;;;;;;;0.64;83.89;93655.19;106603;1275;22646;-76
2023/11/25 07:47:46;;;;;;;40.30;25.30;;;;;;;0.80;83.59;93649.45;106626;1275;25287;-77
2023/11/25 07:50:16;;;;;;;23.00;13.40;;;;;;;0.94;83.58;93639.75;106830;1275;22653;-77
2023/11/25 07:52:45;;;;;;;15.20;9.40;;;;;;;1.12;82.76;93636.56;106720;1275;24234;-76
2023/11/25 07:55:13;;;;;;;20.60;10.50;;;;;;;1.24;81.90;93637.09;106634;1275;25501;-76
2023/11/25 07:57:42;;;;;;;22.00;11.90;;;;;;;1.36;81.77;93640.71;106679;1275;23130;-76
2023/11/25 08:00:18;;;;;;;19.10;10.30;;;;;;;1.50;81.34;93644.15;106991;1275;22511;-77
2023/11/25 08:02:49;;;;;;;15.00;7.90;;;;;;;1.65;81.11;93647.20;106769;1275;24505;-76
2023/11/25 08:05:24;;;;;;;12.00;7.20;;;;;;;1.82;81.45;93655.77;106648;1275;22736;-76
2023/11/25 08:07:54;;;;;;;9.40;5.80;;;;;;;1.95;80.36;93660.41;106647;1275;22521;-77
2023/11/25 08:10:26;;;;;;;8.50;5.00;;;;;;;2.01;78.89;93662.58;106747;1275;22660;-76
2023/11/25 08:12:54;;;;;;;13.60;8.00;;;;;;;2.05;78.68;93659.73;106768;1275;22628;-76
2023/11/25 08:15:27;;;;;;;24.40;14.30;;;;;;;2.15;78.69;93650.02;106675;1275;22526;-76
2023/11/25 08:17:58;;;;;;;35.50;17.40;;;;;;;2.23;77.57;93643.29;106642;1275;22610;-76
2023/11/25 08:20:26;;;;;;;16.10;9.00;;;;;;;2.24;76.94;93635.45;106860;1275;22531;-76
2023/11/25 08:22:55;;;;;;;11.00;6.70;;;;;;;2.23;76.61;93638.08;106753;1275;22579;-76
2023/11/25 08:25:23;;;;;;;10.90;6.50;;;;;;;2.25;76.81;93638.04;107000;1275;22777;-76
2023/11/25 08:27:51;;;;;;;10.10;6.00;;;;;;;2.30;77.18;93630.66;106736;1275;22937;-76
2023/11/25 08:30:21;;;;;;;10.90;8.00;;;;;;;2.41;77.58;93638.27;106729;1275;22577;-76
2023/11/25 08:32:49;;;;;;;96.70;63.90;;;;;;;2.47;76.62;93636.23;106863;1275;22639;-76
2023/11/25 08:35:17;;;;;;;31.90;22.10;;;;;;;2.48;75.71;93631.88;106590;1275;22643;-76
2023/11/25 08:37:47;;;;;;;16.10;10.80;;;;;;;2.57;76.22;93633.10;106728;1275;25372;-76
2023/11/25 08:40:17;;;;;;;13.40;9.00;;;;;;;2.69;76.54;93633.05;106723;1275;25489;-76
2023/11/25 08:42:45;;;;;;;14.40;9.30;;;;;;;2.78;75.91;93642.94;106821;1275;24512;-76
2023/11/25 08:45:14;;;;;;;17.80;10.80;;;;;;;2.80;75.12;93648.95;106609;1275;24271;-76
2023/11/25 08:47:43;;;;;;;16.90;10.10;;;;;;;2.80;74.69;93646.35;106701;1275;22519;-76
2023/11/25 08:50:15;;;;;;;16.20;8.50;;;;;;;2.80;75.10;93651.21;106701;1275;22643;-76
2023/11/25 08:52:48;;;;;;;12.80;7.40;;;;;;;2.86;75.32;93648.31;106673;1275;25369;-76
2023/11/25 08:55:19;;;;;;;15.30;7.60;;;;;;;2.84;73.79;93649.75;106706;1275;25517;-76
2023/11/25 08:57:51;;;;;;;14.50;8.40;;;;;;;2.86;73.70;93647.63;106624;1275;23889;-76
2023/11/25 09:00:20;;;;;;;13.30;7.50;;;;;;;2.95;73.78;93650.39;106605;1275;22521;-76
2023/11/25 09:02:50;;;;;;;9.70;6.30;;;;;;;3.05;73.07;93662.01;106932;1275;22540;-76
2023/11/25 09:05:25;;;;;;;8.70;5.70;;;;;;;3.11;72.35;93665.00;106790;1275;24489;-76
2023/11/25 09:07:55;;;;;;;;;;;;;;;3.17;72.25;93663.30;106619;1275;22509;-76
2023/11/25 09:10:26;;;;;;;8.60;5.70;;;;;;;3.23;72.58;93656.75;106673;1275;22741;-76
2023/11/25 09:12:55;;;;;;;8.20;5.10;;;;;;;3.33;72.36;93646.10;106613;1275;22527;-76
2023/11/25 09:15:23;;;;;;;7.70;5.00;;;;;;;3.39;72.15;93643.36;106605;1275;24457;-77
2023/11/25 09:17:51;;;;;;;9.90;6.10;;;;;;;3.42;71.12;93648.35;106585;1275;22531;-76
2023/11/25 09:20:21;;;;;;;10.30;6.20;;;;;;;3.46;70.87;93643.89;106635;1275;25565;-76
2023/11/25 09:22:51;;;;;;;11.40;6.20;;;;;;;3.48;70.91;93637.60;106715;1275;24381;-76
2023/11/25 09:25:20;;;;;;;8.20;5.40;;;;;;;3.54;70.62;93639.38;106663;1275;22646;-76
2023/11/25 09:27:51;;;;;;;7.60;4.90;;;;;;;3.61;70.47;93636.96;106731;1275;22534;-76
2023/11/25 09:30:19;;;;;;;8.90;5.80;;;;;;;3.69;70.77;93631.71;106767;1275;25402;-76
2023/11/25 09:32:48;;;;;;;8.20;5.40;;;;;;;3.78;70.34;93629.95;106750;1263;25492;-76
2023/11/25 09:35:16;;;;;;;8.40;4.80;;;;;;;3.82;70.22;93634.73;106590;1275;22537;-76
2023/11/25 09:37:45;;;;;;;9.90;6.10;;;;;;;3.84;69.66;93637.27;106783;1275;25421;-76
2023/11/25 09:40:18;;;;;;;7.60;5.20;;;;;;;3.92;69.97;93632.73;106844;1275;23010;-76
2023/11/25 09:42:47;;;;;;;7.90;5.20;;;;;;;4.03;69.72;93635.09;106791;1275;22531;-76
2023/11/25 09:45:19;;;;;;;6.90;4.40;;;;;;;4.17;69.23;93627.23;106661;1275;25372;-76
2023/11/25 09:47:47;;;;;;;5.10;3.40;;;;;;;4.33;68.47;93620.55;106670;1275;22752;-76
2023/11/25 09:50:16;;;;;;;8.00;4.40;;;;;;;4.51;67.37;93622.34;106706;1275;25503;-76
2023/11/25 09:52:48;;;;;;;7.30;4.90;;;;;;;4.66;67.15;93615.85;106733;1275;25471;-76
2023/11/25 09:55:18;;;;;;;7.00;4.30;;;;;;;4.89;67.39;93610.50;106771;1275;22788;-76
2023/11/25 09:57:52;;;;;;;7.20;4.70;;;;;;;5.05;65.61;93606.02;106756;1261;24286;-76
2023/11/25 10:00:21;;;;;;;6.10;4.10;;;;;;;5.24;64.89;93598.48;106973;1275;22555;-76
2023/11/25 10:02:56;;;;;;;5.70;3.60;;;;;;;5.43;64.43;93599.30;106669;1275;25244;-76
2023/11/25 10:05:25;;;;;;;8.00;5.50;;;;;;;5.52;63.27;93597.46;106670;1275;25304;-76
2023/11/25 10:07:53;;;;;;;9.70;6.10;;;;;;;5.44;62.38;93599.10;106706;1275;24269;-76
2023/11/25 10:10:23;;;;;;;6.60;4.10;;;;;;;5.35;62.73;93593.11;106708;1275;22542;-76
2023/11/25 10:12:52;;;;;;;3.40;3.10;;;;;;;5.35;63.23;93588.21;106550;1275;25516;-76
2023/11/25 10:15:22;;;;;;;5.80;3.70;;;;;;;5.38;63.14;93590.38;106610;1275;25378;-76
2023/11/25 10:17:50;;;;;;;5.80;4.20;;;;;;;5.38;61.68;93591.95;106767;1275;24396;-76
2023/11/25 10:20:22;;;;;;;6.70;4.10;;;;;;;5.36;61.42;93587.84;106698;1275;23881;-76
2023/11/25 10:22:57;;;;;;;8.40;6.10;;;;;;;5.29;61.06;93591.20;106706;1275;22745;-76
2023/11/25 10:25:27;;;;;;;8.10;3.90;;;;;;;5.20;61.41;93595.47;106741;1275;24336;-76
2023/11/25 10:27:57;;;;;;;6.50;4.10;;;;;;;5.24;61.67;93597.98;106663;1275;25556;-76
2023/11/25 10:30:28;;;;;;;7.90;4.10;;;;;;;5.31;61.48;93600.03;106602;1275;23887;-76
2023/11/25 10:33:00;;;;;;;5.90;3.50;;;;;;;5.34;59.18;93590.16;107002;1275;22531;-76
2023/11/25 10:35:28;;;;;;;5.80;3.90;;;;;;;5.37;59.78;93589.38;106740;1275;24282;-77
2023/11/25 10:37:56;;;;;;;9.90;5.90;;;;;;;5.37;60.27;93587.64;106653;1275;22543;-76
2023/11/25 10:40:27;;;;;;;9.10;5.50;;;;;;;5.30;61.19;93586.98;106748;1275;22538;-76
2023/11/25 10:42:56;;;;;;;14.70;6.80;;;;;;;5.12;62.15;93582.64;106726;1275;25398;-76
2023/11/25 10:45:27;;;;;;;8.00;5.50;;;;;;;4.86;62.46;93580.26;106764;1275;22533;-76
2023/11/25 10:47:57;;;;;;;8.50;6.10;;;;;;;4.69;63.46;93575.69;106715;1275;22523;-76
2023/11/25 10:50:26;;;;;;;11.10;7.10;;;;;;;4.67;63.60;93578.36;106721;1275;24218;-76
2023/11/25 10:53:00;;;;;;;12.10;8.20;;;;;;;4.54;63.61;93570.91;106732;1275;25329;-76
2023/11/25 10:55:32;;;;;;;11.30;7.60;;;;;;;4.46;64.05;93568.69;106656;1275;22528;-77
2023/11/25 10:58:05;;;;;;;9.60;6.90;;;;;;;4.40;64.12;93570.06;106707;1275;22527;-76
2023/11/25 11:00:34;;;;;;;11.50;7.10;;;;;;;4.34;64.69;93564.49;106756;1275;22527;-76
2023/11/25 11:03:08;;;;;;;14.10;8.20;;;;;;;4.27;64.82;93565.02;106755;1275;22530;-76
2023/11/25 11:05:53;;;;;;;16.90;10.30;;;;;;;4.19;65.54;93575.52;106681;1275;24266;-76
2023/11/25 11:08:29;;;;;;;13.90;9.10;;;;;;;4.16;66.18;93578.02;106722;1275;22621;-76
2023/11/25 11:11:07;;;;;;;17.20;10.00;;;;;;;4.08;66.37;93578.05;106690;1275;25246;-77
2023/11/25 11:13:40;;;;;;;20.90;11.00;;;;;;;4.03;66.75;93575.05;106575;1275;23880;-76
2023/11/25 11:16:38;;;;;;;14.60;9.00;;;;;;;4.03;66.86;93580.64;106650;1275;25370;-76
2023/11/25 11:19:10;;;;;;;11.60;6.30;;;;;;;3.97;67.05;93578.19;106771;1275;24390;-76
2023/11/25 11:21:38;;;;;;;9.70;6.10;;;;;;;3.99;67.09;93578.83;106835;1275;25249;-76
2023/11/25 11:24:08;;;;;;;16.20;10.00;;;;;;;3.97;66.59;93577.66;106651;1275;22566;-77
2023/11/25 11:26:59;;;;;;;15.50;9.60;;;;;;;3.87;66.09;93576.69;106759;1275;22546;-76
2023/11/25 11:29:36;;;;;;;15.30;8.80;;;;;;;3.75;66.12;93577.86;106718;1275;22543;-76
2023/11/25 11:32:08;;;;;;;12.50;7.10;;;;;;;3.61;66.29;93571.77;106704;1275;22523;-76
2023/11/25 11:34:36;;;;;;;10.00;6.50;;;;;;;3.54;66.38;93577.66;106705;1275;23078;-76
2023/11/25 11:37:10;;;;;;;10.90;6.70;;;;;;;3.52;66.71;93564.16;106721;1275;25446;-76
2023/11/25 11:39:39;;;;;;;;;;;;;;;3.51;67.31;93538.45;106727;1275;24063;-76